sensor_id;sensor_type;location;lat;lon;timestamp;P1;durP1;ratioP1;P2;durP2;ratioP2
83435;SDS011;73365;51.688;5.132;2024-03-23T00:53:14;13.52;;;3.38;;
83435;SDS011;73365;51.688;5.132;2024-03-23T00:55:41;8.13;;;3.03;;
83435;SDS011;73365;51.688;5.132;2024-03-23T00:58:07;11.75;;;3.03;;
83435;SDS011;73365;51.688;5.132;2024-03-23T01:00:32;13.95;;;3.72;;
83435;SDS011;73365;51.688;5.132;2024-03-23T01:02:58;8.93;;;2.85;;
83435;SDS011;73365;51.688;5.132;2024-03-23T01:05:23;13.07;;;4.00;;
83435;SDS011;73365;51.688;5.132;2024-03-23T01:07:48;9.05;;;3.00;;
83435;SDS011;73365;51.688;5.132;2024-03-23T01:10:14;9.93;;;2.85;;
83435;SDS011;73365;51.688;5.132;2024-03-23T01:12:39;9.13;;;2.72;;
83435;SDS011;73365;51.688;5.132;2024-03-23T01:15:05;8.80;;;2.93;;
83435;SDS011;73365;51.688;5.132;2024-03-23T01:17:31;13.52;;;3.25;;
83435;SDS011;73365;51.688;5.132;2024-03-23T01:19:56;10.68;;;2.83;;
83435;SDS011;73365;51.688;5.132;2024-03-23T01:22:22;11.10;;;3.17;;
83435;SDS011;73365;51.688;5.132;2024-03-23T01:24:47;12.25;;;2.65;;
83435;SDS011;73365;51.688;5.132;2024-03-23T01:27:13;7.05;;;2.45;;
83435;SDS011;73365;51.688;5.132;2024-03-23T01:29:38;9.13;;;2.70;;
83435;SDS011;73365;51.688;5.132;2024-03-23T01:32:03;11.15;;;2.67;;
83435;SDS011;73365;51.688;5.132;2024-03-23T01:34:30;9.63;;;3.10;;
83435;SDS011;73365;51.688;5.132;2024-03-23T01:36:55;10.20;;;2.58;;
83435;SDS011;73365;51.688;5.132;2024-03-23T01:39:20;8.23;;;2.20;;
83435;SDS011;73365;51.688;5.132;2024-03-23T01:41:46;5.73;;;1.73;;
83435;SDS011;73365;51.688;5.132;2024-03-23T01:44:11;5.30;;;2.10;;
83435;SDS011;73365;51.688;5.132;2024-03-23T01:46:37;9.73;;;2.42;;
83435;SDS011;73365;51.688;5.132;2024-03-23T01:49:03;7.65;;;1.88;;
83435;SDS011;73365;51.688;5.132;2024-03-23T01:51:29;7.97;;;2.03;;
83435;SDS011;73365;51.688;5.132;2024-03-23T01:53:55;8.35;;;2.33;;
83435;SDS011;73365;51.688;5.132;2024-03-23T01:56:21;8.95;;;2.45;;
83435;SDS011;73365;51.688;5.132;2024-03-23T01:58:47;10.40;;;2.50;;
83435;SDS011;73365;51.688;5.132;2024-03-23T02:01:12;8.35;;;2.33;;
83435;SDS011;73365;51.688;5.132;2024-03-23T02:03:37;11.00;;;2.53;;
83435;SDS011;73365;51.688;5.132;2024-03-23T02:06:03;8.60;;;2.22;;
83435;SDS011;73365;51.688;5.132;2024-03-23T02:08:28;8.93;;;2.58;;
83435;SDS011;73365;51.688;5.132;2024-03-23T02:13:20;5.67;;;2.00;;
83435;SDS011;73365;51.688;5.132;2024-03-23T02:15:45;6.30;;;2.10;;
83435;SDS011;73365;51.688;5.132;2024-03-23T02:18:10;10.07;;;2.20;;
83435;SDS011;73365;51.688;5.132;2024-03-23T02:20:36;9.05;;;2.03;;
83435;SDS011;73365;51.688;5.132;2024-03-23T02:23:02;5.35;;;1.48;;
83435;SDS011;73365;51.688;5.132;2024-03-23T02:25:28;8.35;;;1.48;;
83435;SDS011;73365;51.688;5.132;2024-03-23T02:27:53;12.63;;;1.73;;
83435;SDS011;73365;51.688;5.132;2024-03-23T02:30:19;10.10;;;2.38;;
83435;SDS011;73365;51.688;5.132;2024-03-23T02:32:45;5.47;;;1.58;;
83435;SDS011;73365;51.688;5.132;2024-03-23T02:35:10;10.27;;;1.30;;
83435;SDS011;73365;51.688;5.132;2024-03-23T02:37:36;6.93;;;1.95;;
83435;SDS011;73365;51.688;5.132;2024-03-23T02:40:01;7.22;;;1.10;;
83435;SDS011;73365;51.688;5.132;2024-03-23T02:42:27;11.13;;;2.00;;
83435;SDS011;73365;51.688;5.132;2024-03-23T02:44:52;4.53;;;1.30;;
83435;SDS011;73365;51.688;5.132;2024-03-23T02:47:17;6.93;;;1.40;;
83435;SDS011;73365;51.688;5.132;2024-03-23T02:49:43;5.90;;;1.75;;
83435;SDS011;73365;51.688;5.132;2024-03-23T02:52:08;5.70;;;1.67;;
83435;SDS011;73365;51.688;5.132;2024-03-23T02:54:33;9.13;;;1.63;;
83435;SDS011;73365;51.688;5.132;2024-03-23T02:56:59;10.88;;;1.75;;
83435;SDS011;73365;51.688;5.132;2024-03-23T02:59:24;9.73;;;1.40;;
83435;SDS011;73365;51.688;5.132;2024-03-23T03:01:49;6.18;;;1.25;;
83435;SDS011;73365;51.688;5.132;2024-03-23T03:04:15;8.77;;;1.67;;
83435;SDS011;73365;51.688;5.132;2024-03-23T03:06:40;6.80;;;1.77;;
83435;SDS011;73365;51.688;5.132;2024-03-23T03:09:06;7.65;;;1.33;;
83435;SDS011;73365;51.688;5.132;2024-03-23T03:11:31;5.75;;;1.60;;
83435;SDS011;73365;51.688;5.132;2024-03-23T03:13:57;7.68;;;1.52;;
83435;SDS011;73365;51.688;5.132;2024-03-23T03:16:25;7.18;;;1.60;;
83435;SDS011;73365;51.688;5.132;2024-03-23T03:18:50;5.90;;;1.15;;
83435;SDS011;73365;51.688;5.132;2024-03-23T03:21:17;7.07;;;1.15;;
83435;SDS011;73365;51.688;5.132;2024-03-23T03:23:44;11.30;;;1.30;;
83435;SDS011;73365;51.688;5.132;2024-03-23T03:26:09;8.65;;;1.80;;
83435;SDS011;73365;51.688;5.132;2024-03-23T03:28:34;10.88;;;1.95;;
83435;SDS011;73365;51.688;5.132;2024-03-23T03:31:00;7.70;;;1.50;;
83435;SDS011;73365;51.688;5.132;2024-03-23T03:33:28;10.93;;;2.72;;
83435;SDS011;73365;51.688;5.132;2024-03-23T03:35:54;9.05;;;1.60;;
83435;SDS011;73365;51.688;5.132;2024-03-23T03:38:20;10.80;;;1.58;;
83435;SDS011;73365;51.688;5.132;2024-03-23T03:40:45;7.72;;;2.13;;
83435;SDS011;73365;51.688;5.132;2024-03-23T03:43:11;7.10;;;1.52;;
83435;SDS011;73365;51.688;5.132;2024-03-23T03:45:36;9.27;;;1.83;;
83435;SDS011;73365;51.688;5.132;2024-03-23T03:48:02;7.33;;;1.60;;
83435;SDS011;73365;51.688;5.132;2024-03-23T03:50:27;7.32;;;1.70;;
83435;SDS011;73365;51.688;5.132;2024-03-23T03:52:53;8.23;;;2.03;;
83435;SDS011;73365;51.688;5.132;2024-03-23T03:55:18;9.38;;;2.38;;
83435;SDS011;73365;51.688;5.132;2024-03-23T03:57:43;6.28;;;1.40;;
83435;SDS011;73365;51.688;5.132;2024-03-23T04:00:09;7.17;;;1.33;;
83435;SDS011;73365;51.688;5.132;2024-03-23T04:02:38;12.43;;;2.00;;
83435;SDS011;73365;51.688;5.132;2024-03-23T04:05:04;14.23;;;2.20;;
83435;SDS011;73365;51.688;5.132;2024-03-23T04:07:29;9.40;;;1.80;;
83435;SDS011;73365;51.688;5.132;2024-03-23T04:09:55;7.00;;;1.48;;
83435;SDS011;73365;51.688;5.132;2024-03-23T04:12:20;6.77;;;1.70;;
83435;SDS011;73365;51.688;5.132;2024-03-23T04:14:45;5.93;;;1.70;;
83435;SDS011;73365;51.688;5.132;2024-03-23T04:17:11;10.38;;;1.83;;
83435;SDS011;73365;51.688;5.132;2024-03-23T04:19:36;6.68;;;1.50;;
83435;SDS011;73365;51.688;5.132;2024-03-23T04:22:02;6.10;;;1.98;;
83435;SDS011;73365;51.688;5.132;2024-03-23T04:26:53;9.40;;;2.00;;
83435;SDS011;73365;51.688;5.132;2024-03-23T04:29:19;12.02;;;2.25;;
83435;SDS011;73365;51.688;5.132;2024-03-23T04:31:44;8.00;;;1.73;;
83435;SDS011;73365;51.688;5.132;2024-03-23T04:34:09;6.93;;;1.83;;
83435;SDS011;73365;51.688;5.132;2024-03-23T04:36:35;8.55;;;1.60;;
83435;SDS011;73365;51.688;5.132;2024-03-23T04:39:01;8.02;;;1.67;;
83435;SDS011;73365;51.688;5.132;2024-03-23T04:41:27;8.70;;;1.95;;
83435;SDS011;73365;51.688;5.132;2024-03-23T04:43:52;10.05;;;2.13;;
83435;SDS011;73365;51.688;5.132;2024-03-23T04:46:18;6.80;;;1.40;;
83435;SDS011;73365;51.688;5.132;2024-03-23T04:48:43;8.45;;;1.80;;
83435;SDS011;73365;51.688;5.132;2024-03-23T04:51:20;7.82;;;1.25;;
83435;SDS011;73365;51.688;5.132;2024-03-23T04:53:46;7.15;;;1.40;;
83435;SDS011;73365;51.688;5.132;2024-03-23T04:56:13;7.15;;;1.90;;
83435;SDS011;73365;51.688;5.132;2024-03-23T04:58:38;10.77;;;1.70;;
83435;SDS011;73365;51.688;5.132;2024-03-23T05:01:03;8.07;;;1.42;;
83435;SDS011;73365;51.688;5.132;2024-03-23T05:03:29;9.23;;;1.58;;
83435;SDS011;73365;51.688;5.132;2024-03-23T05:05:54;6.50;;;1.17;;
83435;SDS011;73365;51.688;5.132;2024-03-23T05:08:19;8.77;;;1.73;;
83435;SDS011;73365;51.688;5.132;2024-03-23T05:10:45;7.82;;;1.27;;
83435;SDS011;73365;51.688;5.132;2024-03-23T05:13:11;6.72;;;1.45;;
83435;SDS011;73365;51.688;5.132;2024-03-23T05:15:36;12.38;;;1.67;;
83435;SDS011;73365;51.688;5.132;2024-03-23T05:18:01;7.78;;;1.70;;
83435;SDS011;73365;51.688;5.132;2024-03-23T05:20:27;6.72;;;1.50;;
83435;SDS011;73365;51.688;5.132;2024-03-23T05:22:52;8.75;;;1.45;;
83435;SDS011;73365;51.688;5.132;2024-03-23T05:25:19;7.60;;;1.50;;
83435;SDS011;73365;51.688;5.132;2024-03-23T05:27:44;9.27;;;1.50;;
83435;SDS011;73365;51.688;5.132;2024-03-23T05:30:10;7.68;;;1.80;;
83435;SDS011;73365;51.688;5.132;2024-03-23T05:32:35;5.25;;;1.55;;
83435;SDS011;73365;51.688;5.132;2024-03-23T05:35:01;6.33;;;1.30;;
83435;SDS011;73365;51.688;5.132;2024-03-23T05:37:26;6.53;;;1.42;;
83435;SDS011;73365;51.688;5.132;2024-03-23T05:39:52;7.35;;;1.52;;
83435;SDS011;73365;51.688;5.132;2024-03-23T05:42:17;9.13;;;1.60;;
83435;SDS011;73365;51.688;5.132;2024-03-23T05:44:43;10.40;;;1.67;;
83435;SDS011;73365;51.688;5.132;2024-03-23T05:47:10;8.65;;;1.48;;
83435;SDS011;73365;51.688;5.132;2024-03-23T05:49:35;7.88;;;1.88;;
83435;SDS011;73365;51.688;5.132;2024-03-23T05:52:00;8.93;;;1.50;;
83435;SDS011;73365;51.688;5.132;2024-03-23T05:54:28;7.55;;;1.33;;
83435;SDS011;73365;51.688;5.132;2024-03-23T05:56:54;6.18;;;1.60;;
83435;SDS011;73365;51.688;5.132;2024-03-23T05:59:20;6.25;;;1.50;;
83435;SDS011;73365;51.688;5.132;2024-03-23T06:01:46;9.57;;;1.55;;
83435;SDS011;73365;51.688;5.132;2024-03-23T06:06:38;6.38;;;1.70;;
83435;SDS011;73365;51.688;5.132;2024-03-23T06:09:04;7.10;;;1.77;;
83435;SDS011;73365;51.688;5.132;2024-03-23T06:11:29;9.52;;;1.13;;
83435;SDS011;73365;51.688;5.132;2024-03-23T06:13:55;7.38;;;1.20;;
83435;SDS011;73365;51.688;5.132;2024-03-23T06:16:20;6.47;;;1.10;;
83435;SDS011;73365;51.688;5.132;2024-03-23T06:18:48;7.00;;;1.60;;
83435;SDS011;73365;51.688;5.132;2024-03-23T06:23:40;7.47;;;1.63;;
83435;SDS011;73365;51.688;5.132;2024-03-23T06:26:06;6.35;;;1.75;;
83435;SDS011;73365;51.688;5.132;2024-03-23T06:28:32;9.87;;;1.60;;
83435;SDS011;73365;51.688;5.132;2024-03-23T06:30:57;6.38;;;1.52;;
83435;SDS011;73365;51.688;5.132;2024-03-23T06:33:22;7.45;;;1.38;;
83435;SDS011;73365;51.688;5.132;2024-03-23T06:35:51;7.22;;;1.20;;
83435;SDS011;73365;51.688;5.132;2024-03-23T06:38:17;5.72;;;1.50;;
83435;SDS011;73365;51.688;5.132;2024-03-23T06:40:43;6.63;;;1.10;;
83435;SDS011;73365;51.688;5.132;2024-03-23T06:43:12;6.13;;;1.27;;
83435;SDS011;73365;51.688;5.132;2024-03-23T06:45:38;6.65;;;1.20;;
83435;SDS011;73365;51.688;5.132;2024-03-23T06:48:04;4.43;;;0.90;;
83435;SDS011;73365;51.688;5.132;2024-03-23T06:50:32;3.42;;;0.80;;
83435;SDS011;73365;51.688;5.132;2024-03-23T06:52:58;6.85;;;1.05;;
83435;SDS011;73365;51.688;5.132;2024-03-23T06:55:23;4.07;;;1.00;;
83435;SDS011;73365;51.688;5.132;2024-03-23T06:57:51;7.68;;;2.25;;
83435;SDS011;73365;51.688;5.132;2024-03-23T07:00:17;7.47;;;1.42;;
83435;SDS011;73365;51.688;5.132;2024-03-23T07:02:42;8.10;;;2.17;;
83435;SDS011;73365;51.688;5.132;2024-03-23T07:05:09;12.35;;;1.92;;
83435;SDS011;73365;51.688;5.132;2024-03-23T07:10:00;7.27;;;1.23;;
83435;SDS011;73365;51.688;5.132;2024-03-23T07:12:26;5.88;;;0.90;;
83435;SDS011;73365;51.688;5.132;2024-03-23T07:14:52;5.93;;;0.90;;
83435;SDS011;73365;51.688;5.132;2024-03-23T07:17:17;7.07;;;1.30;;
83435;SDS011;73365;51.688;5.132;2024-03-23T07:19:43;9.35;;;1.08;;
83435;SDS011;73365;51.688;5.132;2024-03-23T07:22:08;7.82;;;1.42;;
83435;SDS011;73365;51.688;5.132;2024-03-23T07:24:34;6.07;;;1.20;;
83435;SDS011;73365;51.688;5.132;2024-03-23T07:26:59;6.40;;;1.15;;
83435;SDS011;73365;51.688;5.132;2024-03-23T07:29:25;6.25;;;1.73;;
83435;SDS011;73365;51.688;5.132;2024-03-23T07:31:50;5.78;;;1.10;;
83435;SDS011;73365;51.688;5.132;2024-03-23T07:34:15;7.35;;;1.20;;
83435;SDS011;73365;51.688;5.132;2024-03-23T07:36:41;6.63;;;1.20;;
83435;SDS011;73365;51.688;5.132;2024-03-23T07:39:06;7.40;;;1.10;;
83435;SDS011;73365;51.688;5.132;2024-03-23T07:41:33;7.00;;;1.02;;
83435;SDS011;73365;51.688;5.132;2024-03-23T07:43:58;7.35;;;1.23;;
83435;SDS011;73365;51.688;5.132;2024-03-23T07:46:24;7.30;;;1.20;;
83435;SDS011;73365;51.688;5.132;2024-03-23T07:48:50;8.43;;;1.30;;
83435;SDS011;73365;51.688;5.132;2024-03-23T07:51:25;7.38;;;1.40;;
83435;SDS011;73365;51.688;5.132;2024-03-23T07:53:50;7.88;;;1.17;;
83435;SDS011;73365;51.688;5.132;2024-03-23T07:56:17;6.43;;;1.17;;
83435;SDS011;73365;51.688;5.132;2024-03-23T07:58:46;8.77;;;1.60;;
83435;SDS011;73365;51.688;5.132;2024-03-23T08:01:13;6.15;;;1.20;;
83435;SDS011;73365;51.688;5.132;2024-03-23T08:03:43;11.02;;;1.33;;
83435;SDS011;73365;51.688;5.132;2024-03-23T08:06:09;8.20;;;1.67;;
83435;SDS011;73365;51.688;5.132;2024-03-23T08:08:51;4.95;;;0.88;;
83435;SDS011;73365;51.688;5.132;2024-03-23T08:11:24;7.55;;;0.85;;
83435;SDS011;73365;51.688;5.132;2024-03-23T08:13:51;4.40;;;0.70;;
83435;SDS011;73365;51.688;5.132;2024-03-23T08:16:16;7.67;;;1.47;;
83435;SDS011;73365;51.688;5.132;2024-03-23T08:18:41;8.35;;;1.08;;
83435;SDS011;73365;51.688;5.132;2024-03-23T08:21:07;7.95;;;0.85;;
83435;SDS011;73365;51.688;5.132;2024-03-23T08:23:33;8.82;;;1.08;;
83435;SDS011;73365;51.688;5.132;2024-03-23T08:26:01;8.38;;;1.33;;
83435;SDS011;73365;51.688;5.132;2024-03-23T08:30:54;4.53;;;0.77;;
83435;SDS011;73365;51.688;5.132;2024-03-23T08:33:19;8.25;;;1.20;;
83435;SDS011;73365;51.688;5.132;2024-03-23T08:35:53;8.25;;;1.15;;
83435;SDS011;73365;51.688;5.132;2024-03-23T08:38:28;9.23;;;1.27;;
83435;SDS011;73365;51.688;5.132;2024-03-23T08:41:00;5.50;;;0.80;;
83435;SDS011;73365;51.688;5.132;2024-03-23T08:43:26;6.00;;;1.02;;
83435;SDS011;73365;51.688;5.132;2024-03-23T08:45:52;5.55;;;0.82;;
83435;SDS011;73365;51.688;5.132;2024-03-23T08:50:45;5.53;;;0.73;;
83435;SDS011;73365;51.688;5.132;2024-03-23T08:53:11;5.05;;;0.70;;
83435;SDS011;73365;51.688;5.132;2024-03-23T08:55:36;7.13;;;0.90;;
83435;SDS011;73365;51.688;5.132;2024-03-23T08:58:01;7.82;;;0.90;;
83435;SDS011;73365;51.688;5.132;2024-03-23T09:00:27;5.60;;;0.88;;
83435;SDS011;73365;51.688;5.132;2024-03-23T09:02:52;4.83;;;0.83;;
83435;SDS011;73365;51.688;5.132;2024-03-23T09:05:18;12.75;;;1.20;;
83435;SDS011;73365;51.688;5.132;2024-03-23T09:07:44;6.03;;;0.73;;
83435;SDS011;73365;51.688;5.132;2024-03-23T09:10:09;6.75;;;0.80;;
83435;SDS011;73365;51.688;5.132;2024-03-23T09:12:34;8.60;;;0.80;;
83435;SDS011;73365;51.688;5.132;2024-03-23T09:15:00;6.22;;;0.80;;
83435;SDS011;73365;51.688;5.132;2024-03-23T09:17:25;9.07;;;0.77;;
83435;SDS011;73365;51.688;5.132;2024-03-23T09:19:50;3.47;;;0.50;;
83435;SDS011;73365;51.688;5.132;2024-03-23T09:22:16;6.70;;;0.95;;
83435;SDS011;73365;51.688;5.132;2024-03-23T09:27:06;8.53;;;1.00;;
83435;SDS011;73365;51.688;5.132;2024-03-23T09:31:57;7.53;;;1.00;;
83435;SDS011;73365;51.688;5.132;2024-03-23T09:36:51;8.10;;;0.77;;
83435;SDS011;73365;51.688;5.132;2024-03-23T09:39:17;5.95;;;0.90;;
83435;SDS011;73365;51.688;5.132;2024-03-23T09:41:42;6.45;;;0.80;;
83435;SDS011;73365;51.688;5.132;2024-03-23T09:46:33;12.70;;;1.23;;
83435;SDS011;73365;51.688;5.132;2024-03-23T09:49:01;7.00;;;0.90;;
83435;SDS011;73365;51.688;5.132;2024-03-23T09:51:29;6.25;;;1.02;;
83435;SDS011;73365;51.688;5.132;2024-03-23T09:53:55;7.47;;;1.67;;
83435;SDS011;73365;51.688;5.132;2024-03-23T09:58:46;5.85;;;0.60;;
83435;SDS011;73365;51.688;5.132;2024-03-23T10:03:43;4.40;;;0.57;;
83435;SDS011;73365;51.688;5.132;2024-03-23T10:06:11;5.28;;;0.82;;
83435;SDS011;73365;51.688;5.132;2024-03-23T10:08:37;4.55;;;0.90;;
83435;SDS011;73365;51.688;5.132;2024-03-23T10:11:15;3.80;;;0.80;;
83435;SDS011;73365;51.688;5.132;2024-03-23T10:13:42;7.90;;;1.40;;
83435;SDS011;73365;51.688;5.132;2024-03-23T10:16:08;9.73;;;0.88;;
83435;SDS011;73365;51.688;5.132;2024-03-23T10:18:39;4.50;;;1.10;;
83435;SDS011;73365;51.688;5.132;2024-03-23T10:25:56;7.25;;;0.50;;
83435;SDS011;73365;51.688;5.132;2024-03-23T10:28:43;2.72;;;0.82;;
83435;SDS011;73365;51.688;5.132;2024-03-23T10:31:26;5.50;;;0.70;;
83435;SDS011;73365;51.688;5.132;2024-03-23T10:33:52;4.40;;;0.63;;
83435;SDS011;73365;51.688;5.132;2024-03-23T10:36:19;7.10;;;1.00;;
83435;SDS011;73365;51.688;5.132;2024-03-23T10:38:45;5.90;;;0.80;;
83435;SDS011;73365;51.688;5.132;2024-03-23T10:43:37;4.57;;;0.60;;
83435;SDS011;73365;51.688;5.132;2024-03-23T10:46:03;4.70;;;0.52;;
83435;SDS011;73365;51.688;5.132;2024-03-23T10:48:29;6.63;;;0.95;;
83435;SDS011;73365;51.688;5.132;2024-03-23T10:50:54;6.47;;;0.52;;
83435;SDS011;73365;51.688;5.132;2024-03-23T10:53:21;7.25;;;1.00;;
83435;SDS011;73365;51.688;5.132;2024-03-23T10:55:47;4.55;;;0.55;;
83435;SDS011;73365;51.688;5.132;2024-03-23T10:58:13;3.15;;;0.40;;
83435;SDS011;73365;51.688;5.132;2024-03-23T11:00:39;4.32;;;0.50;;
83435;SDS011;73365;51.688;5.132;2024-03-23T11:05:48;4.07;;;0.40;;
83435;SDS011;73365;51.688;5.132;2024-03-23T11:08:29;4.37;;;0.80;;
83435;SDS011;73365;51.688;5.132;2024-03-23T11:11:22;3.20;;;0.98;;
83435;SDS011;73365;51.688;5.132;2024-03-23T11:13:53;2.85;;;0.55;;
83435;SDS011;73365;51.688;5.132;2024-03-23T11:16:25;3.80;;;0.40;;
83435;SDS011;73365;51.688;5.132;2024-03-23T11:21:59;9.30;;;0.90;;
83435;SDS011;73365;51.688;5.132;2024-03-23T11:24:25;5.45;;;0.70;;
83435;SDS011;73365;51.688;5.132;2024-03-23T11:26:50;6.10;;;0.88;;
83435;SDS011;73365;51.688;5.132;2024-03-23T11:29:17;5.55;;;0.50;;
83435;SDS011;73365;51.688;5.132;2024-03-23T11:31:49;8.20;;;1.10;;
83435;SDS011;73365;51.688;5.132;2024-03-23T11:34:16;8.55;;;1.27;;
83435;SDS011;73365;51.688;5.132;2024-03-23T11:39:11;3.90;;;0.60;;
83435;SDS011;73365;51.688;5.132;2024-03-23T11:41:48;7.05;;;1.23;;
83435;SDS011;73365;51.688;5.132;2024-03-23T11:44:15;6.55;;;1.52;;
83435;SDS011;73365;51.688;5.132;2024-03-23T11:46:41;9.68;;;1.13;;
83435;SDS011;73365;51.688;5.132;2024-03-23T11:49:06;6.17;;;0.70;;
83435;SDS011;73365;51.688;5.132;2024-03-23T11:51:31;4.67;;;0.70;;
83435;SDS011;73365;51.688;5.132;2024-03-23T11:54:12;3.42;;;1.30;;
83435;SDS011;73365;51.688;5.132;2024-03-23T11:56:37;9.50;;;0.90;;
83435;SDS011;73365;51.688;5.132;2024-03-23T11:59:02;7.72;;;1.70;;
83435;SDS011;73365;51.688;5.132;2024-03-23T12:01:28;3.88;;;0.63;;
83435;SDS011;73365;51.688;5.132;2024-03-23T12:03:53;6.53;;;1.05;;
83435;SDS011;73365;51.688;5.132;2024-03-23T12:08:47;7.75;;;0.80;;
83435;SDS011;73365;51.688;5.132;2024-03-23T12:11:16;3.45;;;0.40;;
83435;SDS011;73365;51.688;5.132;2024-03-23T12:13:45;3.45;;;1.13;;
83435;SDS011;73365;51.688;5.132;2024-03-23T12:16:16;6.85;;;0.50;;
83435;SDS011;73365;51.688;5.132;2024-03-23T12:18:44;5.43;;;0.55;;
83435;SDS011;73365;51.688;5.132;2024-03-23T12:21:13;4.57;;;0.77;;
83435;SDS011;73365;51.688;5.132;2024-03-23T12:23:39;5.38;;;0.60;;
83435;SDS011;73365;51.688;5.132;2024-03-23T12:26:06;3.83;;;0.32;;
83435;SDS011;73365;51.688;5.132;2024-03-23T12:28:31;9.00;;;0.73;;
83435;SDS011;73365;51.688;5.132;2024-03-23T12:30:57;6.93;;;0.73;;
83435;SDS011;73365;51.688;5.132;2024-03-23T12:33:23;5.88;;;0.77;;
83435;SDS011;73365;51.688;5.132;2024-03-23T12:38:14;4.97;;;0.57;;
83435;SDS011;73365;51.688;5.132;2024-03-23T12:40:39;4.47;;;0.47;;
83435;SDS011;73365;51.688;5.132;2024-03-23T12:45:32;2.00;;;0.20;;
83435;SDS011;73365;51.688;5.132;2024-03-23T12:47:58;3.75;;;0.40;;
83435;SDS011;73365;51.688;5.132;2024-03-23T12:52:48;5.33;;;0.53;;
83435;SDS011;73365;51.688;5.132;2024-03-23T12:55:14;2.38;;;0.20;;
83435;SDS011;73365;51.688;5.132;2024-03-23T12:57:39;2.90;;;0.20;;
83435;SDS011;73365;51.688;5.132;2024-03-23T13:00:06;3.25;;;0.20;;
83435;SDS011;73365;51.688;5.132;2024-03-23T13:02:34;2.70;;;0.20;;
83435;SDS011;73365;51.688;5.132;2024-03-23T13:05:00;2.65;;;0.30;;
83435;SDS011;73365;51.688;5.132;2024-03-23T13:07:25;4.85;;;0.43;;
83435;SDS011;73365;51.688;5.132;2024-03-23T13:12:17;6.70;;;1.23;;
83435;SDS011;73365;51.688;5.132;2024-03-23T13:14:43;2.53;;;0.25;;
83435;SDS011;73365;51.688;5.132;2024-03-23T13:17:10;5.15;;;0.47;;
83435;SDS011;73365;51.688;5.132;2024-03-23T13:19:35;5.28;;;0.50;;
83435;SDS011;73365;51.688;5.132;2024-03-23T13:22:01;2.78;;;0.52;;
83435;SDS011;73365;51.688;5.132;2024-03-23T13:24:29;3.38;;;0.40;;
83435;SDS011;73365;51.688;5.132;2024-03-23T13:26:55;3.88;;;0.40;;
83435;SDS011;73365;51.688;5.132;2024-03-23T13:29:21;4.60;;;0.57;;
83435;SDS011;73365;51.688;5.132;2024-03-23T13:31:51;5.00;;;1.08;;
83435;SDS011;73365;51.688;5.132;2024-03-23T13:34:17;3.90;;;0.38;;
83435;SDS011;73365;51.688;5.132;2024-03-23T13:36:43;2.10;;;0.45;;
83435;SDS011;73365;51.688;5.132;2024-03-23T13:39:09;4.25;;;0.65;;
83435;SDS011;73365;51.688;5.132;2024-03-23T13:41:41;5.57;;;0.63;;
83435;SDS011;73365;51.688;5.132;2024-03-23T13:44:08;4.30;;;0.70;;
83435;SDS011;73365;51.688;5.132;2024-03-23T13:46:37;4.90;;;0.85;;
83435;SDS011;73365;51.688;5.132;2024-03-23T13:49:07;5.38;;;0.77;;
83435;SDS011;73365;51.688;5.132;2024-03-23T13:51:39;4.25;;;0.60;;
83435;SDS011;73365;51.688;5.132;2024-03-23T13:54:05;6.60;;;0.90;;
83435;SDS011;73365;51.688;5.132;2024-03-23T13:58:56;4.93;;;0.70;;
83435;SDS011;73365;51.688;5.132;2024-03-23T14:01:21;8.25;;;0.65;;
83435;SDS011;73365;51.688;5.132;2024-03-23T14:03:47;5.50;;;0.80;;
83435;SDS011;73365;51.688;5.132;2024-03-23T14:06:12;4.60;;;0.52;;
83435;SDS011;73365;51.688;5.132;2024-03-23T14:11:06;8.90;;;0.80;;
83435;SDS011;73365;51.688;5.132;2024-03-23T14:13:33;7.63;;;0.55;;
83435;SDS011;73365;51.688;5.132;2024-03-23T14:15:59;3.28;;;0.50;;
83435;SDS011;73365;51.688;5.132;2024-03-23T14:20:51;4.50;;;0.55;;
83435;SDS011;73365;51.688;5.132;2024-03-23T14:23:16;2.22;;;0.28;;
83435;SDS011;73365;51.688;5.132;2024-03-23T14:25:42;6.38;;;0.63;;
83435;SDS011;73365;51.688;5.132;2024-03-23T14:28:08;4.35;;;0.77;;
83435;SDS011;73365;51.688;5.132;2024-03-23T14:30:39;7.35;;;0.95;;
83435;SDS011;73365;51.688;5.132;2024-03-23T14:33:05;2.55;;;0.70;;
83435;SDS011;73365;51.688;5.132;2024-03-23T14:35:30;0.75;;;0.28;;
83435;SDS011;73365;51.688;5.132;2024-03-23T14:37:58;1.27;;;0.20;;
83435;SDS011;73365;51.688;5.132;2024-03-23T14:40:23;2.58;;;0.30;;
83435;SDS011;73365;51.688;5.132;2024-03-23T14:42:51;5.82;;;0.50;;
83435;SDS011;73365;51.688;5.132;2024-03-23T14:45:17;9.18;;;0.45;;
83435;SDS011;73365;51.688;5.132;2024-03-23T14:47:42;4.03;;;0.73;;
83435;SDS011;73365;51.688;5.132;2024-03-23T14:50:08;5.78;;;0.57;;
83435;SDS011;73365;51.688;5.132;2024-03-23T14:52:36;4.43;;;0.52;;
83435;SDS011;73365;51.688;5.132;2024-03-23T14:55:02;4.43;;;0.55;;
83435;SDS011;73365;51.688;5.132;2024-03-23T14:57:27;7.53;;;0.57;;
83435;SDS011;73365;51.688;5.132;2024-03-23T14:59:54;2.63;;;0.20;;
83435;SDS011;73365;51.688;5.132;2024-03-23T15:02:20;2.97;;;0.17;;
83435;SDS011;73365;51.688;5.132;2024-03-23T15:04:45;0.77;;;0.00;;
83435;SDS011;73365;51.688;5.132;2024-03-23T15:07:10;1.43;;;0.00;;
83435;SDS011;73365;51.688;5.132;2024-03-23T15:09:36;0.20;;;0.00;;
83435;SDS011;73365;51.688;5.132;2024-03-23T15:12:01;0.40;;;0.00;;
83435;SDS011;73365;51.688;5.132;2024-03-23T15:14:27;1.15;;;0.10;;
83435;SDS011;73365;51.688;5.132;2024-03-23T15:16:53;1.10;;;0.30;;
83435;SDS011;73365;51.688;5.132;2024-03-23T15:19:19;2.17;;;0.00;;
83435;SDS011;73365;51.688;5.132;2024-03-23T15:21:44;2.58;;;0.40;;
83435;SDS011;73365;51.688;5.132;2024-03-23T15:24:10;2.97;;;0.13;;
83435;SDS011;73365;51.688;5.132;2024-03-23T15:26:38;0.65;;;0.13;;
83435;SDS011;73365;51.688;5.132;2024-03-23T15:29:03;0.63;;;0.10;;
83435;SDS011;73365;51.688;5.132;2024-03-23T15:31:36;0.55;;;0.10;;
83435;SDS011;73365;51.688;5.132;2024-03-23T15:34:02;0.40;;;0.20;;
83435;SDS011;73365;51.688;5.132;2024-03-23T15:36:27;1.20;;;0.20;;
83435;SDS011;73365;51.688;5.132;2024-03-23T15:38:52;0.88;;;0.17;;
83435;SDS011;73365;51.688;5.132;2024-03-23T15:41:20;1.17;;;0.10;;
83435;SDS011;73365;51.688;5.132;2024-03-23T15:43:45;2.28;;;0.20;;
83435;SDS011;73365;51.688;5.132;2024-03-23T15:46:11;2.77;;;0.30;;
83435;SDS011;73365;51.688;5.132;2024-03-23T15:48:36;0.68;;;0.15;;
83435;SDS011;73365;51.688;5.132;2024-03-23T15:51:03;0.55;;;0.10;;
83435;SDS011;73365;51.688;5.132;2024-03-23T15:53:29;1.55;;;0.20;;
83435;SDS011;73365;51.688;5.132;2024-03-23T15:55:59;1.80;;;0.32;;
83435;SDS011;73365;51.688;5.132;2024-03-23T15:58:28;0.88;;;0.10;;
83435;SDS011;73365;51.688;5.132;2024-03-23T16:00:58;0.77;;;0.00;;
83435;SDS011;73365;51.688;5.132;2024-03-23T16:03:24;1.10;;;0.20;;
83435;SDS011;73365;51.688;5.132;2024-03-23T16:05:53;0.52;;;0.10;;
83435;SDS011;73365;51.688;5.132;2024-03-23T16:08:19;0.60;;;0.17;;
83435;SDS011;73365;51.688;5.132;2024-03-23T16:10:44;1.00;;;0.00;;
83435;SDS011;73365;51.688;5.132;2024-03-23T16:13:09;0.32;;;0.00;;
83435;SDS011;73365;51.688;5.132;2024-03-23T16:15:35;0.30;;;0.13;;
83435;SDS011;73365;51.688;5.132;2024-03-23T16:18:00;0.43;;;0.00;;
83435;SDS011;73365;51.688;5.132;2024-03-23T16:20:26;1.08;;;0.20;;
83435;SDS011;73365;51.688;5.132;2024-03-23T16:22:51;2.05;;;0.17;;
83435;SDS011;73365;51.688;5.132;2024-03-23T16:25:17;1.00;;;0.17;;
83435;SDS011;73365;51.688;5.132;2024-03-23T16:27:42;3.03;;;0.20;;
83435;SDS011;73365;51.688;5.132;2024-03-23T16:30:07;1.52;;;0.10;;
83435;SDS011;73365;51.688;5.132;2024-03-23T16:32:34;2.80;;;0.35;;
83435;SDS011;73365;51.688;5.132;2024-03-23T16:35:02;1.35;;;0.10;;
83435;SDS011;73365;51.688;5.132;2024-03-23T16:37:28;1.33;;;0.10;;
83435;SDS011;73365;51.688;5.132;2024-03-23T16:39:53;0.73;;;0.10;;